AirNav  
 
 1089 users online  

2M1 Harry S Truman Regional Airport
Bates City, Missouri, USA

GOING TO BATES CITY?


FAA INFORMATION EFFECTIVE 22 APRIL 2021

Location

FAA Identifier: 2M1
Lat/Long: 39-01-10.7000N 094-05-11.4000W
39-01.178333N 094-05.190000W
39.0196389,-94.0865000
(estimated)
Elevation: 860 ft. / 262 m (estimated)
Variation: 05E (1985)
From city: 2 miles NW of BATES CITY, MO
Time zone: UTC -5 (UTC -6 during Standard Time)
Zip code: 64011

Airport Operations

Airport use: Open to the public
Activation date: 05/1985
Control tower: no
ARTCC: KANSAS CITY CENTER
FSS: COLUMBIA FLIGHT SERVICE STATION
NOTAMs facility: COU (NOTAM-D service available)
Attendance: MON-FRI 0800-1800
AFTER 1800 HRS ALL GATES ARE LOCKED.
Wind indicator: yes
Segmented circle: no

Airport Communications

CTAF/UNICOM: 122.8
WX ASOS at LXT (14 nm W): 124.175 (816-347-9807)
WX AWOS-3PT at RCM (19 nm SE): 119.575 (660-422-7010)

Nearby radio navigation aids

VOR radial/distance  VOR name  Freq  Var
ANXr150/5.0NAPOLEON VORTAC114.0007E
MCIr113/34.2KANSAS CITY VORTAC113.2505E
BQSr192/37.9BRAYMER VOR/DME111.2003E

Airport Services

Runway Information

Runway 3/21

Dimensions: 4400 x 70 ft. / 1341 x 21 m
WIDTH VARIANCE 70-80 FT.
Surface: gravel, in fair condition
RUNWAY 3  RUNWAY 21
Latitude: 39-00.864833N39-01.492833N
Longitude: 094-05.422667W094-04.958167W
Elevation: 851.0 ft.860.0 ft.
Traffic pattern: leftleft
Obstructions: 27 ft. tree, 110 ft. from runway, 80 ft. left of centerline, 4:1 slope to clear69 ft. tree, 320 ft. from runway, 75 ft. right of centerline, 4:1 slope to clear

Airport Ownership and Management from official FAA records

Ownership: Privately-owned
Owner: WHITE INDUSTRIES, INC..
1013 NORTH OUTER ROAD
BATES CITY, MO 64011
Phone 816-690-8800
Manager: MATTHEW BREWE
1013 NORTH OUTER ROAD
BATES CITY, MO 64011
Phone 816-690-8800

Airport Operational Statistics

Aircraft based on the field: 1
Single engine airplanes: 1
    
Aircraft operations: 75/year *
87% local general aviation
13% transient general aviation
* for 12-month period ending 31 December 2018

Additional Remarks

MIGATORY BIRDS ON & INVOF ARPT DURING FALL AND WINTER.
RY 03/21 INSUFFICIENT RY SAFETY AREA LENGTHS BEYOND EACH RY END. RY 3 END HAS STEEP SLOPE WITH FENCE, TREES, & ROAD. RY 21 END HAS FENCE, TREES, & ROAD.
PAEW INVOF ARPT.
FOR CD CTC KANSAS CITY APCH AT 816-329-2710.

Instrument Procedures

There are no published instrument procedures at 2M1.

Some nearby airports with instrument procedures:

3GV - East Kansas City Airport (6 nm W)
KLXT - Lee's Summit Municipal Airport (14 nm W)
KHIG - Higginsville Industrial Municipal Airport (19 nm E)
KRCM - Skyhaven Airport (19 nm SE)
3EX - Excelsior Springs Memorial Airport (20 nm N)
 
Loc | Ops | Rwys | IFR | FBO | Links
Com | Nav | Svcs | Stats | Notes
Area around 2M1 (Harry S Truman Regional Airport)
 
Road maps at: MapQuest Bing Google
 
Aerial photo
WARNING: Photo may not be current or correct
Aerial photo of 2M1 (Harry S Truman Regional Airport)
Do you have a better or more recent aerial photo of Harry S Truman Regional Airport that you would like to share? If so, please send us your photo.

 
Sectional chart

 
Airport distance calculator
Flying to Harry S Truman Regional Airport? Find the distance to fly.

From to 2M1

Sunrise and sunset
Times for 05-May-2021
 Local
(UTC-5)
 Zulu
(UTC)
Morning civil twilight05:4510:45
Sunrise06:1511:15
Sunset20:1201:12
Evening civil twilight20:4101:41

Current date and time
Zulu (UTC)  05-May-2021 23:31:54
Local (UTC-5)  05-May-2021 18:31:54
 
METAR
KLXT 
13nm W 
052253Z AUTO 25010KT 10SM BKN095 19/07 A3012 RMK AO2 SLP198 T01940072
KRCM 
19nm SE 
052315Z AUTO 20003KT 10SM BKN120 18/02 A3012 RMK AO2
KGPH 
21nm NW 
052315Z AUTO 00000KT 10SM OVC090 19/M02 A3011 RMK AO2
KMKC 
25nm W 
052254Z 22007KT 10SM SCT100 BKN120 21/M02 A3010 RMK AO2 SLP191 T02061022
TAF
KMKC 
25nm W 
051804Z 0518/0618 VRB04KT P6SM FEW100 FM061000 27012KT P6SM BKN070
NOTAMs
Click for the latest NOTAMs
NOTAMs are issued by the DoD/FAA and will open in a separate window not controlled by AirNav.

 

 
 

Would you like to see your business listed on this page?

 If your business provides an interesting product or service to pilots, flight crews, aircraft, or users of the Harry S Truman Regional Airport, you should consider listing it here.  To start the listing process, click on the button below
 
Add a business
 

Other Pages about Harry S Truman Regional Airport

Update a link
 
Copyright © AirNav, LLC. All rights reserved. Privacy Policy  Contact